createdAt,value
2022-09-11T00:01:48.324Z,34.67
2022-09-11T00:04:17.059Z,35.47
2022-09-11T00:06:46.330Z,37.73
2022-09-11T00:09:16.333Z,36.57
2022-09-11T00:11:45.010Z,37.87
2022-09-11T00:14:14.945Z,33.80
2022-09-11T00:16:46.368Z,37.67
2022-09-11T00:19:17.497Z,36.50
2022-09-11T00:21:46.547Z,41.73
2022-09-11T00:24:16.679Z,32.27
2022-09-11T00:26:48.057Z,39.43
2022-09-11T00:29:16.641Z,32.40
2022-09-11T00:31:45.340Z,36.93
2022-09-11T00:34:14.175Z,35.00
2022-09-11T00:36:43.269Z,36.93
2022-09-11T00:39:12.724Z,35.03
2022-09-11T00:41:46.353Z,35.53
2022-09-11T00:45:09.168Z,40.07
2022-09-11T00:47:38.136Z,40.73
2022-09-11T00:50:13.621Z,46.17
2022-09-11T00:52:52.996Z,40.37
2022-09-11T00:55:24.182Z,34.83
2022-09-11T00:58:03.171Z,32.77
2022-09-11T01:00:31.922Z,37.47
2022-09-11T01:03:01.015Z,36.57
2022-09-11T01:05:34.777Z,39.27
2022-09-11T01:08:04.321Z,41.37
2022-09-11T01:10:44.553Z,35.63
2022-09-11T01:13:23.998Z,37.13
2022-09-11T01:16:04.180Z,37.90
2022-09-11T01:18:36.238Z,39.83
2022-09-11T01:21:33.923Z,41.30
2022-09-11T01:24:16.276Z,40.30
2022-09-11T01:27:07.148Z,40.80
2022-09-11T01:29:44.164Z,48.80
2022-09-11T01:32:19.504Z,38.47
2022-09-11T01:34:53.769Z,44.30
2022-09-11T01:37:26.598Z,33.07
2022-09-11T01:40:02.871Z,34.63
2022-09-11T01:42:34.188Z,37.90
2022-09-11T01:45:06.949Z,38.53
2022-09-11T01:47:37.852Z,44.33
2022-09-11T01:50:09.727Z,46.07
2022-09-11T01:52:44.417Z,44.30
2022-09-11T01:55:17.740Z,45.57
2022-09-11T01:57:51.608Z,44.47
2022-09-11T02:00:21.687Z,41.20
2022-09-11T02:02:55.745Z,36.13
2022-09-11T02:05:28.731Z,38.17
2022-09-11T02:08:01.005Z,39.87
2022-09-11T02:10:34.432Z,37.03
2022-09-11T02:13:12.834Z,36.83
2022-09-11T02:15:47.442Z,35.30
2022-09-11T02:18:24.776Z,37.97
2022-09-11T02:20:53.921Z,36.90
2022-09-11T02:23:22.941Z,37.27
2022-09-11T02:25:51.758Z,35.80
2022-09-11T02:28:20.328Z,40.50
2022-09-11T02:30:50.945Z,33.40
2022-09-11T02:33:30.704Z,31.00
2022-09-11T02:36:13.603Z,29.80
2022-09-11T02:38:53.618Z,34.70
2022-09-11T02:41:26.422Z,34.27
2022-09-11T02:44:06.655Z,32.40
2022-09-11T02:46:50.898Z,36.07
2022-09-11T02:49:26.786Z,33.97
2022-09-11T02:52:02.567Z,30.47
2022-09-11T02:54:38.682Z,37.77
2022-09-11T02:57:12.911Z,33.27
2022-09-11T02:59:46.707Z,34.43
2022-09-11T03:02:18.958Z,37.73
2022-09-11T03:04:48.704Z,32.57
2022-09-11T03:07:17.924Z,40.67
2022-09-11T03:09:46.931Z,35.10
2022-09-11T03:12:15.568Z,36.33
2022-09-11T03:14:44.226Z,34.63
2022-09-11T03:17:13.478Z,35.17
2022-09-11T03:19:43.481Z,38.53
2022-09-11T03:22:12.248Z,34.70
2022-09-11T03:24:40.859Z,41.87
2022-09-11T03:27:09.396Z,33.70
2022-09-11T03:29:37.990Z,42.17
2022-09-11T03:32:06.919Z,35.00
2022-09-11T03:34:35.492Z,40.37
2022-09-11T03:37:05.884Z,38.57
2022-09-11T03:39:34.559Z,35.30
2022-09-11T03:42:03.221Z,38.23
2022-09-11T03:44:31.902Z,34.40
2022-09-11T03:47:00.826Z,32.47
2022-09-11T03:49:29.453Z,34.37
2022-09-11T03:51:58.124Z,33.07
2022-09-11T03:54:28.851Z,35.03
2022-09-11T03:56:58.974Z,36.83
2022-09-11T03:59:28.132Z,35.27
2022-09-11T04:01:56.752Z,32.87
2022-09-11T04:04:25.499Z,37.70
2022-09-11T04:06:54.087Z,37.13
2022-09-11T04:09:23.144Z,35.23
2022-09-11T04:11:53.131Z,32.53
2022-09-11T04:14:22.865Z,34.63
2022-09-11T04:16:51.439Z,34.13
2022-09-11T04:19:21.627Z,36.57
2022-09-11T04:21:50.235Z,42.80
2022-09-11T04:24:18.981Z,41.37
2022-09-11T04:26:47.989Z,34.17
2022-09-11T04:29:18.640Z,32.70
2022-09-11T04:31:47.278Z,37.87
2022-09-11T04:34:15.943Z,40.77
2022-09-11T04:36:44.709Z,38.60
2022-09-11T04:39:13.333Z,38.67
2022-09-11T04:41:41.957Z,31.63
2022-09-11T04:44:10.779Z,33.20
2022-09-11T04:46:41.240Z,32.50
2022-09-11T04:49:10.913Z,35.53
2022-09-11T04:51:40.690Z,35.80
2022-09-11T04:54:09.798Z,39.10
2022-09-11T04:56:39.077Z,46.23
2022-09-11T04:59:13.713Z,44.50
2022-09-11T05:01:44.651Z,38.70
2022-09-11T05:04:14.045Z,34.37
2022-09-11T05:06:45.372Z,36.10
2022-09-11T05:09:14.170Z,33.33
2022-09-11T05:11:42.827Z,35.17
2022-09-11T05:14:12.885Z,30.13
2022-09-11T05:16:44.150Z,35.20
2022-09-11T05:19:12.896Z,37.47
2022-09-11T05:21:41.915Z,41.70
2022-09-11T05:24:11.016Z,35.23
2022-09-11T05:26:40.226Z,38.57
2022-09-11T05:29:12.463Z,37.73
2022-09-11T05:31:41.810Z,39.90
2022-09-11T05:34:11.848Z,36.13
2022-09-11T05:36:41.597Z,34.77
2022-09-11T05:39:11.153Z,39.77
2022-09-11T05:41:39.825Z,35.33
2022-09-11T05:44:08.592Z,38.00
2022-09-11T05:46:37.435Z,39.73
2022-09-11T05:49:06.084Z,36.73
2022-09-11T05:51:38.129Z,38.67
2022-09-11T05:54:06.970Z,33.33
2022-09-11T05:56:35.691Z,35.27
2022-09-11T05:59:04.876Z,33.20
2022-09-11T06:01:33.463Z,31.27
2022-09-11T06:04:02.903Z,34.17
2022-09-11T06:06:33.055Z,32.57
2022-09-11T06:09:03.315Z,34.10
2022-09-11T06:11:32.315Z,36.40
2022-09-11T06:14:01.191Z,29.93
2022-09-11T06:16:31.800Z,35.13
2022-09-11T06:19:00.586Z,30.90
2022-09-11T06:21:29.378Z,34.83
2022-09-11T06:23:58.784Z,33.27
2022-09-11T06:26:29.535Z,33.07
2022-09-11T06:28:58.805Z,32.40
2022-09-11T06:31:30.030Z,32.37
2022-09-11T06:33:58.899Z,28.53
2022-09-11T06:36:30.098Z,36.00
2022-09-11T06:38:59.814Z,32.63
2022-09-11T06:41:31.640Z,31.17
2022-09-11T06:44:00.177Z,33.17
2022-09-11T06:46:30.405Z,40.03
2022-09-11T06:48:59.278Z,33.20
2022-09-11T06:51:28.314Z,35.13
2022-09-11T06:53:58.309Z,35.60
2022-09-11T06:56:27.002Z,43.07
2022-09-11T06:58:57.211Z,27.33
2022-09-11T07:01:26.659Z,43.17
2022-09-11T07:03:56.237Z,33.53
2022-09-11T07:06:26.648Z,35.70
2022-09-11T07:09:00.898Z,37.07
2022-09-11T07:11:32.617Z,40.40
2022-09-11T07:14:06.008Z,37.93
2022-09-11T07:16:34.856Z,45.80
2022-09-11T07:19:04.500Z,33.00
2022-09-11T07:21:34.461Z,39.77
2022-09-11T07:24:04.126Z,43.93
2022-09-11T07:26:32.780Z,35.17
2022-09-11T07:29:03.586Z,42.07
2022-09-11T07:31:34.580Z,41.40
2022-09-11T07:34:03.586Z,36.50
2022-09-11T07:36:34.883Z,32.97
2022-09-11T07:39:03.934Z,35.77
2022-09-11T07:41:33.093Z,42.03
2022-09-11T07:44:04.130Z,39.90
2022-09-11T07:46:33.010Z,40.63
2022-09-11T07:49:03.023Z,39.30
2022-09-11T07:51:31.876Z,29.83
2022-09-11T07:54:01.326Z,31.33
2022-09-11T07:56:31.266Z,37.93
2022-09-11T07:59:01.539Z,31.03
2022-09-11T08:01:33.737Z,33.03
2022-09-11T08:04:04.944Z,37.77
2022-09-11T08:06:35.834Z,34.00
2022-09-11T08:09:06.463Z,32.07
2022-09-11T08:11:38.658Z,28.83
2022-09-11T08:14:08.114Z,28.50
2022-09-11T08:16:39.072Z,26.10
2022-09-11T08:19:08.080Z,23.70
2022-09-11T08:21:36.956Z,32.00
2022-09-11T08:24:07.427Z,26.53
2022-09-11T08:26:37.997Z,27.43
2022-09-11T08:29:06.908Z,23.43
2022-09-11T08:31:37.068Z,24.33
2022-09-11T08:34:05.677Z,22.07
2022-09-11T08:36:34.319Z,26.07
2022-09-11T08:39:03.579Z,23.77
2022-09-11T08:41:41.201Z,21.67
2022-09-11T08:44:21.330Z,20.97
2022-09-11T08:46:56.001Z,23.97
2022-09-11T08:49:28.224Z,25.13
2022-09-11T08:52:00.198Z,24.13
2022-09-11T08:54:32.407Z,23.33
2022-09-11T08:57:10.011Z,22.57
2022-09-11T08:59:57.774Z,24.07
2022-09-11T09:02:52.003Z,24.00
2022-09-11T09:05:32.471Z,21.63
2022-09-11T09:08:18.849Z,21.30
2022-09-11T09:10:53.309Z,22.53
2022-09-11T09:13:41.671Z,21.63
2022-09-11T09:16:26.716Z,21.57
2022-09-11T09:19:03.370Z,23.60
2022-09-11T09:21:36.450Z,21.73
2022-09-11T09:24:20.077Z,22.77
2022-09-11T09:26:53.015Z,22.13
2022-09-11T09:29:23.977Z,22.57
2022-09-11T09:31:56.781Z,22.43
2022-09-11T09:34:31.318Z,22.40
2022-09-11T09:37:05.390Z,21.17
2022-09-11T09:39:36.252Z,21.67
2022-09-11T09:42:30.745Z,22.23
2022-09-11T09:45:20.378Z,20.83
2022-09-11T09:47:50.311Z,20.27
2022-09-11T09:50:24.053Z,23.10
2022-09-11T09:52:56.466Z,20.80
2022-09-11T09:55:25.511Z,20.17
2022-09-11T09:57:54.117Z,19.87
2022-09-11T10:00:22.926Z,23.03
2022-09-11T10:02:54.806Z,19.57
2022-09-11T10:05:30.159Z,21.63
2022-09-11T10:08:01.604Z,18.07
2022-09-11T10:10:33.124Z,19.97
2022-09-11T10:13:18.734Z,19.07
2022-09-11T10:15:50.442Z,21.57
2022-09-11T10:18:41.826Z,19.70
2022-09-11T10:21:24.121Z,21.33
2022-09-11T10:23:55.628Z,20.83
2022-09-11T10:26:33.005Z,22.73
2022-09-11T10:29:07.817Z,19.50
2022-09-11T10:31:39.958Z,23.00
2022-09-11T10:34:15.204Z,21.00
2022-09-11T10:36:54.489Z,23.63
2022-09-11T10:39:25.358Z,20.20
2022-09-11T10:41:59.209Z,20.80
2022-09-11T10:44:29.736Z,20.27
2022-09-11T10:47:05.476Z,21.83
2022-09-11T10:49:35.156Z,21.60
2022-09-11T10:52:18.907Z,20.57
2022-09-11T10:55:01.093Z,21.07
2022-09-11T10:57:35.585Z,20.47
2022-09-11T11:00:13.256Z,20.90
2022-09-11T11:02:44.482Z,21.60
2022-09-11T11:05:21.676Z,20.93
2022-09-11T11:08:23.248Z,20.10
2022-09-11T11:11:08.378Z,21.43
2022-09-11T11:13:54.458Z,22.30
2022-09-11T11:16:33.854Z,22.97
2022-09-11T11:19:24.698Z,20.70
2022-09-11T11:22:02.044Z,21.80
2022-09-11T11:24:46.892Z,22.50
2022-09-11T11:27:53.892Z,26.03
2022-09-11T11:30:25.117Z,22.83
2022-09-11T11:33:11.127Z,21.53
2022-09-11T11:35:47.096Z,24.67
2022-09-11T11:38:22.400Z,22.37
2022-09-11T11:40:56.875Z,22.53
2022-09-11T11:43:29.309Z,22.00
2022-09-11T11:46:02.566Z,21.17
2022-09-11T11:48:39.969Z,22.00
2022-09-11T11:51:12.937Z,22.07
2022-09-11T11:53:46.291Z,23.13
2022-09-11T11:56:24.820Z,23.30
2022-09-11T11:58:58.805Z,21.47
2022-09-11T12:01:33.670Z,22.33
2022-09-11T12:04:06.058Z,21.47
2022-09-11T12:06:35.500Z,25.23
2022-09-11T12:09:05.506Z,25.00
2022-09-11T12:11:37.031Z,25.50
2022-09-11T12:14:08.257Z,26.20
2022-09-11T12:16:37.839Z,23.37
2022-09-11T12:19:15.008Z,25.30
2022-09-11T12:21:59.380Z,26.43
2022-09-11T12:24:52.458Z,25.63
2022-09-11T12:27:53.667Z,22.90
2022-09-11T12:30:27.987Z,25.40
2022-09-11T12:32:58.271Z,23.70
2022-09-11T12:35:33.011Z,22.97
2022-09-11T12:38:05.621Z,22.20
2022-09-11T12:40:40.193Z,25.63
2022-09-11T12:43:30.825Z,23.47
2022-09-11T12:45:59.802Z,23.90
2022-09-11T12:48:38.919Z,25.07
2022-09-11T12:51:19.475Z,24.73
2022-09-11T12:53:55.604Z,25.00
2022-09-11T12:56:26.749Z,24.03
2022-09-11T12:59:00.747Z,24.53
2022-09-11T13:01:31.887Z,22.50
2022-09-11T13:04:03.832Z,24.77
2022-09-11T13:06:42.144Z,24.60
2022-09-11T13:09:22.314Z,24.23
2022-09-11T13:11:53.198Z,23.93
2022-09-11T13:14:53.454Z,24.17
2022-09-11T13:17:28.612Z,23.47
2022-09-11T13:20:20.722Z,23.47
2022-09-11T13:22:51.959Z,24.97
2022-09-11T13:25:26.658Z,24.00
2022-09-11T13:27:58.045Z,25.43
2022-09-11T13:30:28.662Z,26.13
2022-09-11T13:33:07.341Z,24.00
2022-09-11T13:35:40.301Z,24.00
2022-09-11T13:38:14.318Z,24.97
2022-09-11T13:40:47.679Z,25.13
2022-09-11T13:43:20.795Z,26.13
2022-09-11T13:45:50.977Z,23.40
2022-09-11T13:48:22.854Z,25.20
2022-09-11T13:50:52.965Z,23.80
2022-09-11T13:53:22.228Z,22.43
2022-09-11T13:55:51.357Z,24.00
2022-09-11T13:58:25.405Z,25.53
2022-09-11T14:00:56.131Z,24.73
2022-09-11T14:03:28.846Z,23.87
2022-09-11T14:05:59.165Z,25.07
2022-09-11T14:08:32.654Z,24.53
2022-09-11T14:11:07.155Z,24.03
2022-09-11T14:13:45.322Z,23.87
2022-09-11T14:16:24.064Z,23.80
2022-09-11T14:18:57.493Z,24.03
2022-09-11T14:21:32.510Z,24.33
2022-09-11T14:24:01.383Z,24.00
2022-09-11T14:26:42.171Z,24.67
2022-09-11T14:29:24.941Z,25.30
2022-09-11T14:32:16.040Z,25.23
2022-09-11T14:34:45.092Z,26.33
2022-09-11T14:37:17.280Z,26.13
2022-09-11T14:39:49.260Z,25.20
2022-09-11T14:42:21.751Z,25.40
2022-09-11T14:44:51.230Z,25.27
2022-09-11T14:47:23.577Z,25.60
2022-09-11T14:49:53.498Z,25.37
2022-09-11T14:52:24.725Z,25.13
2022-09-11T14:54:53.393Z,26.50
2022-09-11T14:57:24.802Z,23.97
2022-09-11T14:59:54.017Z,27.13
2022-09-11T15:02:25.874Z,27.33
2022-09-11T15:04:55.856Z,26.77
2022-09-11T15:07:25.330Z,25.57
2022-09-11T15:09:54.981Z,25.77
2022-09-11T15:12:23.917Z,25.03
2022-09-11T15:14:56.888Z,25.10
2022-09-11T15:17:30.653Z,23.17
2022-09-11T15:20:00.430Z,23.40
2022-09-11T15:22:29.970Z,26.17
2022-09-11T15:25:00.062Z,25.20
2022-09-11T15:27:28.861Z,25.03
2022-09-11T15:29:57.617Z,25.30
2022-09-11T15:32:27.847Z,24.50
2022-09-11T15:34:56.528Z,24.57
2022-09-11T15:37:25.448Z,24.13
2022-09-11T15:39:54.103Z,26.13
2022-09-11T15:42:22.792Z,22.90
2022-09-11T15:44:51.892Z,25.27
2022-09-11T15:47:20.507Z,24.57
2022-09-11T15:49:50.507Z,26.97
2022-09-11T15:52:19.485Z,26.20
2022-09-11T15:54:49.002Z,24.30
2022-09-11T15:57:18.154Z,24.47
2022-09-11T15:59:46.767Z,26.10
2022-09-11T16:02:15.458Z,25.67
2022-09-11T16:04:44.185Z,25.17
2022-09-11T16:07:14.325Z,25.47
2022-09-11T16:09:43.274Z,24.23
2022-09-11T16:12:12.472Z,26.30
2022-09-11T16:14:41.207Z,25.73
2022-09-11T16:17:11.531Z,24.13
2022-09-11T16:19:40.696Z,26.13
2022-09-11T16:22:09.892Z,24.87
2022-09-11T16:24:40.127Z,22.87
2022-09-11T16:27:10.475Z,24.70
2022-09-11T16:30:15.470Z,23.77
2022-09-11T16:32:33.281Z,25.37
2022-09-11T16:35:01.966Z,24.20
2022-09-11T16:37:32.804Z,24.87
2022-09-11T16:40:04.249Z,25.00
2022-09-11T16:42:33.385Z,24.13
2022-09-11T16:45:02.010Z,23.57
2022-09-11T16:47:32.131Z,23.97
2022-09-11T16:50:07.346Z,25.60
2022-09-11T16:52:37.019Z,25.47
2022-09-11T16:55:09.654Z,26.23
2022-09-11T16:57:38.969Z,24.27
2022-09-11T17:00:09.878Z,24.90
2022-09-11T17:02:39.428Z,24.43
2022-09-11T17:05:09.230Z,25.93
2022-09-11T17:07:37.966Z,24.70
2022-09-11T17:10:09.140Z,24.43
2022-09-11T17:12:37.908Z,23.93
2022-09-11T17:15:07.907Z,25.17
2022-09-11T17:17:37.202Z,24.30
2022-09-11T17:20:09.406Z,22.93
2022-09-11T17:22:38.044Z,23.27
2022-09-11T17:25:09.178Z,24.03
2022-09-11T17:27:37.870Z,25.30
2022-09-11T17:30:07.582Z,24.10
2022-09-11T17:32:36.222Z,25.37
2022-09-11T17:35:05.278Z,22.83
2022-09-11T17:37:34.226Z,23.60
2022-09-11T17:40:03.288Z,23.53
2022-09-11T17:42:33.367Z,23.63
2022-09-11T17:45:03.777Z,23.20
2022-09-11T17:47:33.855Z,22.67
2022-09-11T17:50:02.686Z,22.20
2022-09-11T17:52:33.251Z,23.67
2022-09-11T17:55:01.864Z,24.03
2022-09-11T17:57:32.451Z,22.60
2022-09-11T18:00:01.373Z,23.77
2022-09-11T18:02:30.186Z,23.37
2022-09-11T18:04:58.951Z,22.63
2022-09-11T18:07:27.768Z,21.97
2022-09-11T18:09:56.708Z,23.50
2022-09-11T18:12:28.338Z,23.10
2022-09-11T18:15:00.154Z,21.13
2022-09-11T18:17:29.017Z,21.10
2022-09-11T18:19:57.904Z,24.23
2022-09-11T18:22:29.809Z,22.60
2022-09-11T18:24:59.903Z,25.27
2022-09-11T18:27:29.784Z,22.63
2022-09-11T18:30:00.659Z,20.93
2022-09-11T18:32:30.119Z,23.90
2022-09-11T18:35:00.021Z,22.40
2022-09-11T18:37:28.952Z,22.47
2022-09-11T18:39:57.822Z,23.40
2022-09-11T18:42:26.583Z,22.60
2022-09-11T18:44:55.197Z,20.43
2022-09-11T18:47:28.014Z,22.37
2022-09-11T18:49:59.601Z,21.70
2022-09-11T18:52:30.879Z,23.77
2022-09-11T18:55:00.334Z,22.77
2022-09-11T18:57:29.289Z,22.50
2022-09-11T19:00:00.130Z,23.60
2022-09-11T19:02:30.331Z,21.47
2022-09-11T19:05:00.186Z,22.73
2022-09-11T19:07:29.061Z,22.83
2022-09-11T19:10:00.234Z,22.63
2022-09-11T19:12:29.201Z,24.53
2022-09-11T19:14:57.886Z,23.90
2022-09-11T19:17:26.580Z,21.90
2022-09-11T19:19:56.798Z,23.23
2022-09-11T19:22:25.536Z,22.53
2022-09-11T19:24:54.234Z,21.67
2022-09-11T19:27:22.856Z,21.03
2022-09-11T19:29:51.486Z,21.80
2022-09-11T19:32:20.184Z,22.07
2022-09-11T19:34:48.750Z,24.03
2022-09-11T19:37:20.527Z,22.93
2022-09-11T19:39:51.441Z,24.03
2022-09-11T19:42:20.470Z,21.57
2022-09-11T19:44:51.135Z,21.63
2022-09-11T19:47:24.988Z,21.97
2022-09-11T19:49:54.110Z,23.83
2022-09-11T19:52:27.750Z,23.30
2022-09-11T19:55:00.376Z,26.73
2022-09-11T19:57:29.621Z,30.23
2022-09-11T20:00:00.262Z,22.80
2022-09-11T20:02:29.339Z,24.87
2022-09-11T20:04:58.144Z,22.93
2022-09-11T20:07:28.106Z,24.20
2022-09-11T20:09:57.205Z,26.27
2022-09-11T20:12:26.540Z,24.70
2022-09-11T20:14:55.249Z,25.30
2022-09-11T20:17:23.841Z,23.30
2022-09-11T20:19:52.927Z,23.47
2022-09-11T20:22:22.215Z,23.63
2022-09-11T20:24:52.576Z,24.37
2022-09-11T20:27:21.193Z,22.77
2022-09-11T20:29:50.103Z,24.87
2022-09-11T20:32:20.096Z,23.93
2022-09-11T20:34:48.741Z,25.50
2022-09-11T20:37:17.375Z,24.00
2022-09-11T20:39:46.001Z,23.37
2022-09-11T20:42:16.410Z,23.17
2022-09-11T20:44:45.495Z,24.63
2022-09-11T20:47:14.188Z,25.93
2022-09-11T20:49:42.806Z,23.07
2022-09-11T20:52:12.247Z,25.10
2022-09-11T20:54:41.215Z,24.67
2022-09-11T20:57:10.297Z,28.47
2022-09-11T20:59:40.321Z,23.30
2022-09-11T21:02:10.529Z,24.73
2022-09-11T21:04:39.464Z,25.50
2022-09-11T21:07:08.201Z,22.33
2022-09-11T21:09:36.894Z,23.73
2022-09-11T21:12:05.884Z,24.20
2022-09-11T21:14:34.505Z,23.33
2022-09-11T21:17:04.711Z,25.03
2022-09-11T21:19:33.278Z,24.93
2022-09-11T21:22:01.939Z,23.07
2022-09-11T21:24:30.760Z,24.83
2022-09-11T21:26:59.491Z,23.83
2022-09-11T21:29:28.452Z,23.33
2022-09-11T21:31:57.186Z,22.43
2022-09-11T21:34:27.440Z,25.90
2022-09-11T21:36:56.252Z,27.23
2022-09-11T21:39:24.894Z,22.60
2022-09-11T21:41:53.649Z,27.80
2022-09-11T21:44:22.244Z,23.10
2022-09-11T21:46:51.199Z,25.27
2022-09-11T21:49:19.990Z,24.60
2022-09-11T21:51:50.016Z,24.23
2022-09-11T21:54:18.612Z,25.50
2022-09-11T21:56:47.348Z,26.23
2022-09-11T21:59:15.930Z,25.17
2022-09-11T22:01:44.715Z,23.93
2022-09-11T22:04:13.379Z,22.53
2022-09-11T22:06:42.067Z,27.07
2022-09-11T22:09:12.086Z,23.60
2022-09-11T22:11:40.911Z,23.87
2022-09-11T22:14:10.586Z,23.80
2022-09-11T22:16:39.213Z,23.70
2022-09-11T22:19:09.431Z,24.37
2022-09-11T22:21:38.136Z,32.03
2022-09-11T22:24:07.193Z,23.13
2022-09-11T22:26:37.220Z,21.87
2022-09-11T22:29:05.831Z,26.10
2022-09-11T22:31:34.593Z,24.13
2022-09-11T22:34:03.549Z,25.60
2022-09-11T22:36:33.033Z,27.17
2022-09-11T22:39:05.551Z,23.70
2022-09-11T22:41:34.259Z,25.37
2022-09-11T22:44:04.762Z,25.73
2022-09-11T22:46:33.540Z,31.17
2022-09-11T22:49:03.578Z,29.27
2022-09-11T22:51:33.356Z,22.57
2022-09-11T22:54:03.053Z,22.67
2022-09-11T22:56:32.129Z,25.50
2022-09-11T22:59:01.057Z,24.10
2022-09-11T23:01:31.253Z,25.20
2022-09-11T23:03:59.885Z,22.57
2022-09-11T23:06:45.978Z,22.63
2022-09-11T23:09:17.073Z,22.13
2022-09-11T23:11:46.193Z,22.63
2022-09-11T23:14:15.043Z,27.80
2022-09-11T23:16:45.521Z,25.50
2022-09-11T23:19:15.495Z,25.57
2022-09-11T23:21:44.223Z,28.30
2022-09-11T23:24:14.541Z,20.77
2022-09-11T23:26:43.744Z,21.13
2022-09-11T23:29:13.612Z,24.83
2022-09-11T23:31:42.515Z,22.40
2022-09-11T23:34:16.980Z,24.00
2022-09-11T23:36:45.890Z,26.70
2022-09-11T23:39:14.749Z,24.20
2022-09-11T23:41:43.350Z,24.07
2022-09-11T23:44:12.019Z,29.27
2022-09-11T23:46:40.691Z,23.10
2022-09-11T23:49:09.454Z,29.30
2022-09-11T23:51:40.018Z,25.73
2022-09-11T23:54:08.822Z,22.03
2022-09-11T23:56:37.400Z,22.00
2022-09-11T23:59:06.657Z,22.03
